Time;durP1;ratioP1;P1;durP2;ratioP2;P2;SDS_P1;SDS_P2;PMS_P1;PMS_P2;Temp;Humidity;BMP_temperature;BMP_pressure;BME280_temperature;BME280_humidity;BME280_pressure;Samples;Min_cycle;Max_cycle;Signal;HPM_P1;HPM_P2
2021/05/25 00:02:08;;;;;;;1.15;0.50;;;21.30;47.60;;;;;;5054196;28;20029;-42
2021/05/25 00:04:34;;;;;;;0.85;0.50;;;21.30;47.60;;;;;;5048808;28;20025;-42
2021/05/25 00:06:59;;;;;;;1.60;0.73;;;21.30;47.60;;;;;;5059452;28;20443;-41
2021/05/25 00:09:25;;;;;;;1.65;0.55;;;21.30;47.60;;;;;;5052455;28;20028;-42
2021/05/25 00:11:50;;;;;;;1.83;0.40;;;21.30;47.70;;;;;;5051882;28;20033;-43
2021/05/25 00:14:19;;;;;;;0.40;0.40;;;21.30;47.70;;;;;;5055300;28;20117;-45
2021/05/25 00:16:46;;;;;;;1.10;0.60;;;21.30;47.70;;;;;;5053064;28;20115;-41
2021/05/25 00:19:12;;;;;;;1.17;0.50;;;21.30;47.80;;;;;;5052818;28;20083;-42
2021/05/25 00:21:37;;;;;;;1.20;0.60;;;21.30;47.80;;;;;;5058794;28;20037;-41
2021/05/25 00:24:03;;;;;;;3.40;1.00;;;21.30;47.90;;;;;;5057905;28;20031;-46
2021/05/25 00:26:29;;;;;;;2.25;0.50;;;21.30;47.90;;;;;;5058066;28;20103;-42
2021/05/25 00:28:55;;;;;;;1.88;0.43;;;21.30;48.00;;;;;;5052117;28;20528;-42
2021/05/25 00:31:20;;;;;;;3.33;0.70;;;21.30;48.00;;;;;;5052550;28;20031;-41
2021/05/25 00:33:46;;;;;;;1.70;0.50;;;21.30;48.20;;;;;;5054796;28;20030;-41
2021/05/25 00:36:11;;;;;;;5.07;0.82;;;21.30;48.20;;;;;;5057231;28;20066;-41
2021/05/25 00:38:38;;;;;;;2.03;0.85;;;21.30;48.20;;;;;;5058275;28;20368;-42
2021/05/25 00:41:04;;;;;;;1.75;0.68;;;21.30;48.30;;;;;;5051534;28;20036;-41
2021/05/25 00:43:30;;;;;;;2.58;0.73;;;21.30;48.30;;;;;;5051625;28;20044;-41
2021/05/25 00:45:56;;;;;;;3.33;0.55;;;21.30;48.30;;;;;;5055418;28;20024;-41
2021/05/25 00:48:21;;;;;;;1.75;0.55;;;21.30;48.60;;;;;;5059068;28;20098;-42
2021/05/25 00:50:47;;;;;;;2.25;0.80;;;21.30;48.70;;;;;;5056124;28;20457;-41
2021/05/25 00:53:13;;;;;;;0.93;0.40;;;21.30;48.60;;;;;;5053761;28;20025;-42
2021/05/25 00:55:41;;;;;;;2.22;0.63;;;21.30;48.50;;;;;;5051995;28;20060;-41
2021/05/25 00:58:09;;;;;;;2.72;0.60;;;21.30;48.20;;;;;;5045890;28;20075;-50
2021/05/25 01:00:39;;;;;;;2.63;0.68;;;21.30;48.30;;;;;;5053099;28;20061;-42
2021/05/25 01:03:06;;;;;;;2.00;0.70;;;21.30;48.40;;;;;;5053113;28;20112;-42
2021/05/25 01:05:32;;;;;;;0.80;0.40;;;21.30;48.30;;;;;;5051347;28;20041;-42
2021/05/25 01:07:59;;;;;;;1.10;0.50;;;21.30;48.20;;;;;;5060163;28;20056;-41
2021/05/25 01:10:35;;;;;;;1.98;0.50;;;21.30;48.30;;;;;;5049631;28;20029;-42
2021/05/25 01:13:10;;;;;;;1.23;0.70;;;21.30;48.40;;;;;;5051707;28;20036;-42
2021/05/25 01:15:36;;;;;;;1.08;0.50;;;21.30;48.20;;;;;;5052151;28;20032;-41
2021/05/25 01:18:04;;;;;;;1.10;0.60;;;21.30;48.20;;;;;;5051926;28;20478;-42
2021/05/25 01:20:32;;;;;;;1.42;0.40;;;21.30;48.30;;;;;;5050573;28;20040;-43
2021/05/25 01:22:58;;;;;;;1.77;0.90;;;21.30;48.30;;;;;;5052193;28;20017;-42
2021/05/25 01:25:26;;;;;;;1.55;0.70;;;21.30;48.30;;;;;;5040773;28;20032;-45
2021/05/25 01:27:56;;;;;;;1.45;0.60;;;21.30;48.20;;;;;;5052937;28;20079;-41
2021/05/25 01:30:25;;;;;;;2.50;0.55;;;21.30;48.20;;;;;;5049428;28;20056;-42
2021/05/25 01:32:51;;;;;;;1.55;0.50;;;21.30;48.20;;;;;;5051010;28;20033;-41
2021/05/25 01:35:17;;;;;;;1.45;0.60;;;21.30;48.10;;;;;;5050571;28;20028;-41
2021/05/25 01:37:43;;;;;;;1.05;0.63;;;21.30;48.70;;;;;;5056390;28;20153;-41
2021/05/25 01:40:10;;;;;;;0.90;0.40;;;21.30;48.10;;;;;;5055569;28;20104;-51
2021/05/25 01:42:37;;;;;;;1.30;0.50;;;21.30;48.10;;;;;;5053413;28;20477;-42
2021/05/25 01:45:07;;;;;;;1.23;0.57;;;21.30;48.00;;;;;;5052600;28;20588;-42
2021/05/25 01:47:33;;;;;;;1.60;0.98;;;21.30;48.10;;;;;;5052882;28;20503;-42
2021/05/25 01:50:12;;;;;;;1.42;0.50;;;21.30;48.00;;;;;;5055456;28;20032;-43
2021/05/25 01:52:47;;;;;;;0.45;0.30;;;21.30;48.60;;;;;;5042715;28;20473;-42
2021/05/25 01:55:26;;;;;;;1.20;0.50;;;21.20;47.90;;;;;;5051407;28;20218;-42
2021/05/25 01:57:53;;;;;;;3.13;0.60;;;21.30;47.90;;;;;;5049504;28;20045;-47
2021/05/25 02:00:19;;;;;;;1.67;0.60;;;21.30;47.90;;;;;;5045818;28;20041;-42
2021/05/25 02:02:45;;;;;;;1.63;0.88;;;21.30;47.90;;;;;;5053217;28;20033;-42
2021/05/25 02:05:11;;;;;;;0.77;0.40;;;21.30;47.90;;;;;;5042539;28;20085;-51
2021/05/25 02:07:36;;;;;;;0.70;0.43;;;21.30;47.90;;;;;;5032955;28;20037;-41
2021/05/25 02:10:03;;;;;;;1.23;0.50;;;21.30;47.80;;;;;;5052112;28;20040;-42
2021/05/25 02:12:29;;;;;;;2.05;0.50;;;21.30;47.80;;;;;;5049319;28;20458;-47
2021/05/25 02:14:54;;;;;;;2.05;0.73;;;21.30;47.80;;;;;;5053866;28;20025;-42
2021/05/25 02:17:20;;;;;;;0.98;0.43;;;21.30;47.80;;;;;;5050480;28;20040;-42
2021/05/25 02:19:45;;;;;;;1.40;0.50;;;21.30;47.80;;;;;;5058448;28;20027;-41
2021/05/25 02:22:11;;;;;;;1.10;0.55;;;21.30;47.70;;;;;;5050610;28;20025;-50
2021/05/25 02:24:37;;;;;;;1.83;0.57;;;21.30;47.80;;;;;;5048476;28;20060;-51
2021/05/25 02:27:03;;;;;;;1.02;0.50;;;21.30;47.80;;;;;;5056480;28;20375;-42
2021/05/25 02:29:28;;;;;;;1.30;0.40;;;21.30;47.80;;;;;;5051677;28;20045;-41
2021/05/25 02:31:54;;;;;;;1.15;0.40;;;21.30;47.60;;;;;;5051331;28;20040;-42
2021/05/25 02:34:20;;;;;;;1.27;0.77;;;21.20;47.40;;;;;;5053619;28;20029;-42
2021/05/25 02:36:45;;;;;;;1.00;0.50;;;21.30;47.50;;;;;;5050185;28;20036;-42
2021/05/25 02:39:11;;;;;;;0.93;0.88;;;21.30;47.50;;;;;;5050288;28;20083;-51
2021/05/25 02:41:37;;;;;;;1.13;0.50;;;21.30;47.60;;;;;;5049120;28;20029;-42
2021/05/25 02:44:03;;;;;;;0.70;0.40;;;21.30;47.70;;;;;;5051274;28;20060;-42
2021/05/25 02:46:28;;;;;;;0.77;0.40;;;21.20;47.60;;;;;;5049766;28;20037;-42
2021/05/25 02:48:54;;;;;;;0.82;0.38;;;21.20;47.60;;;;;;5050913;28;20032;-42
2021/05/25 02:51:20;;;;;;;1.67;0.47;;;21.30;47.70;;;;;;5049566;28;20482;-42
2021/05/25 02:53:45;;;;;;;1.17;0.70;;;21.30;47.60;;;;;;5052522;28;20485;-41
2021/05/25 02:56:11;;;;;;;1.50;0.45;;;21.20;47.50;;;;;;5052423;28;20021;-50
2021/05/25 02:58:37;;;;;;;0.90;0.45;;;21.20;47.60;;;;;;5050573;28;20463;-41
2021/05/25 03:01:02;;;;;;;3.08;0.73;;;21.20;47.60;;;;;;5054641;28;20021;-42
2021/05/25 03:03:28;;;;;;;0.63;0.40;;;21.20;47.50;;;;;;5049891;28;20078;-42
2021/05/25 03:05:54;;;;;;;2.75;0.45;;;21.20;47.60;;;;;;5051039;28;20056;-42
2021/05/25 03:08:20;;;;;;;2.25;0.63;;;21.20;47.60;;;;;;5055337;28;20033;-43
2021/05/25 03:10:48;;;;;;;1.17;0.68;;;21.20;47.60;;;;;;5052447;28;20021;-42
2021/05/25 03:13:14;;;;;;;1.00;0.40;;;21.30;47.70;;;;;;5049735;28;20079;-50
2021/05/25 03:15:42;;;;;;;1.70;0.40;;;21.30;47.60;;;;;;5055025;28;20103;-42
2021/05/25 03:18:09;;;;;;;0.85;0.47;;;21.20;47.60;;;;;;5052201;28;20048;-41
2021/05/25 03:20:35;;;;;;;0.30;0.28;;;21.20;47.50;;;;;;5055487;28;20029;-42
2021/05/25 03:23:02;;;;;;;0.68;0.30;;;21.20;47.50;;;;;;5054196;28;20029;-46
2021/05/25 03:25:28;;;;;;;1.00;0.35;;;21.20;47.50;;;;;;5050867;28;20033;-41
2021/05/25 03:27:54;;;;;;;0.75;0.30;;;21.20;47.40;;;;;;5050273;28;20432;-41
2021/05/25 03:30:23;;;;;;;0.75;0.40;;;21.20;47.40;;;;;;5048581;28;20048;-42
2021/05/25 03:32:49;;;;;;;0.68;0.40;;;21.20;47.50;;;;;;5042448;28;20090;-42
2021/05/25 03:35:18;;;;;;;1.35;0.57;;;21.30;47.50;;;;;;5049071;28;20051;-47
2021/05/25 03:37:44;;;;;;;1.38;0.50;;;21.20;47.40;;;;;;5053790;28;20025;-49
2021/05/25 03:40:11;;;;;;;2.05;0.50;;;21.30;47.40;;;;;;5054094;28;20016;-51
2021/05/25 03:42:37;;;;;;;1.05;0.65;;;21.20;47.40;;;;;;5050225;28;20529;-42
2021/05/25 03:45:05;;;;;;;0.70;0.40;;;21.20;47.30;;;;;;5054807;28;20029;-42
2021/05/25 03:47:31;;;;;;;1.38;0.40;;;21.20;47.40;;;;;;5053614;28;20037;-42
2021/05/25 03:50:06;;;;;;;1.70;0.30;;;21.20;47.30;;;;;;5053757;28;20029;-41
2021/05/25 03:52:36;;;;;;;1.52;0.50;;;21.20;47.30;;;;;;5050222;28;20024;-41
2021/05/25 03:55:06;;;;;;;0.43;0.30;;;21.20;47.30;;;;;;5054842;28;20084;-42
2021/05/25 03:59:57;;;;;;;1.02;0.50;;;21.20;47.30;;;;;;5054289;28;20044;-41
2021/05/25 04:02:23;;;;;;;1.70;0.60;;;21.20;46.50;;;;;;5052284;28;20462;-41
2021/05/25 04:04:48;;;;;;;0.88;0.40;;;21.20;45.80;;;;;;5053960;28;20024;-42
2021/05/25 04:07:14;;;;;;;0.60;0.30;;;21.20;46.20;;;;;;5053802;28;20037;-50
2021/05/25 04:09:40;;;;;;;2.05;0.40;;;21.10;45.90;;;;;;5055518;28;20021;-44
2021/05/25 04:12:06;;;;;;;1.38;0.70;;;21.20;46.10;;;;;;5057111;28;20401;-48
2021/05/25 04:14:32;;;;;;;1.55;0.57;;;21.10;46.00;;;;;;5049040;28;20033;-45
2021/05/25 04:16:58;;;;;;;1.08;0.75;;;21.10;45.90;;;;;;5051221;28;20040;-42
2021/05/25 04:19:24;;;;;;;1.13;0.52;;;21.10;46.00;;;;;;5053994;28;20127;-42
2021/05/25 04:21:49;;;;;;;1.02;0.40;;;21.20;46.10;;;;;;5052150;28;20498;-42
2021/05/25 04:24:15;;;;;;;0.63;0.40;;;21.20;46.50;;;;;;5048882;28;20067;-50
2021/05/25 04:26:41;;;;;;;0.80;0.40;;;21.20;46.40;;;;;;5053744;28;20037;-42
2021/05/25 04:29:07;;;;;;;0.80;0.50;;;21.20;45.70;;;;;;5052766;28;20033;-42
2021/05/25 04:31:33;;;;;;;1.67;0.50;;;21.20;45.60;;;;;;5052937;28;20086;-43
2021/05/25 04:33:59;;;;;;;1.35;0.50;;;21.20;45.70;;;;;;5050617;28;20463;-42
2021/05/25 04:36:24;;;;;;;1.05;0.30;;;21.10;45.70;;;;;;5052617;28;20021;-42
2021/05/25 04:38:53;;;;;;;1.15;0.57;;;21.10;45.70;;;;;;5056626;28;20029;-42
2021/05/25 04:41:19;;;;;;;1.20;0.38;;;21.10;45.60;;;;;;5057544;28;20176;-45
2021/05/25 04:43:44;;;;;;;0.77;0.32;;;21.10;45.50;;;;;;5052889;28;20546;-41
2021/05/25 04:46:10;;;;;;;1.17;0.40;;;21.10;45.70;;;;;;5047171;28;20104;-43
2021/05/25 04:48:36;;;;;;;0.52;0.30;;;21.10;45.60;;;;;;5050899;28;20068;-41
2021/05/25 04:51:02;;;;;;;0.80;0.40;;;21.10;45.50;;;;;;5035544;28;20390;-42
2021/05/25 04:53:28;;;;;;;0.45;0.30;;;21.10;45.30;;;;;;5053235;28;20087;-41
2021/05/25 04:55:53;;;;;;;1.25;0.40;;;21.10;45.60;;;;;;5050252;28;20482;-42
2021/05/25 04:58:19;;;;;;;1.15;0.50;;;21.10;45.40;;;;;;5051358;28;20128;-42
2021/05/25 05:00:45;;;;;;;2.28;0.40;;;21.10;45.30;;;;;;5052680;28;20475;-42
2021/05/25 05:03:10;;;;;;;1.08;0.30;;;21.10;45.30;;;;;;5052718;28;20032;-42
2021/05/25 05:05:36;;;;;;;1.10;0.50;;;21.10;45.40;;;;;;5051368;28;20450;-42
2021/05/25 05:08:07;;;;;;;2.90;0.55;;;21.10;45.50;;;;;;5055681;28;20120;-41
2021/05/25 05:10:33;;;;;;;2.33;0.60;;;21.10;46.00;;;;;;5052436;28;20032;-42
2021/05/25 05:12:59;;;;;;;1.08;0.50;;;21.10;46.00;;;;;;5052916;28;20024;-41
2021/05/25 05:15:25;;;;;;;5.80;0.63;;;21.20;46.10;;;;;;5055339;28;20037;-42
2021/05/25 05:17:53;;;;;;;3.75;0.50;;;21.20;46.10;;;;;;5051662;28;20029;-42
2021/05/25 05:20:19;;;;;;;1.83;0.50;;;21.30;46.20;;;;;;5046074;28;20385;-44
2021/05/25 05:22:45;;;;;;;1.75;0.70;;;21.10;45.10;;;;;;5052341;28;20021;-41
2021/05/25 05:25:11;;;;;;;3.00;0.50;;;21.10;43.40;;;;;;5050297;28;20127;-41
2021/05/25 05:27:38;;;;;;;2.92;0.75;;;21.20;44.50;;;;;;5050917;28;20407;-51
2021/05/25 05:30:05;;;;;;;2.33;0.45;;;21.20;45.30;;;;;;5055493;28;20028;-41
2021/05/25 05:32:31;;;;;;;4.57;0.60;;;21.30;45.80;;;;;;5053123;28;20035;-42
2021/05/25 05:34:56;;;;;;;5.28;0.90;;;21.30;45.90;;;;;;5053250;28;20020;-41
2021/05/25 05:37:22;;;;;;;5.35;0.77;;;21.30;46.00;;;;;;5051286;28;20057;-41
2021/05/25 05:39:48;;;;;;;3.97;0.70;;;21.30;46.50;;;;;;5052142;28;20039;-51
2021/05/25 05:42:14;;;;;;;6.40;0.80;;;21.40;47.00;;;;;;5033298;28;20024;-41
2021/05/25 05:44:39;;;;;;;13.75;1.35;;;21.40;46.90;;;;;;5049280;28;20021;-42
2021/05/25 05:47:05;;;;;;;8.13;1.25;;;21.50;47.30;;;;;;5035269;28;20041;-42
2021/05/25 05:49:31;;;;;;;5.95;1.00;;;21.50;48.00;;;;;;5050979;28;20025;-41
2021/05/25 05:51:57;;;;;;;12.07;0.93;;;21.50;48.40;;;;;;5050183;28;20021;-41
2021/05/25 05:54:22;;;;;;;9.48;1.08;;;21.50;48.80;;;;;;5050208;28;20064;-42
2021/05/25 05:56:48;;;;;;;7.40;1.00;;;21.50;49.10;;;;;;5045938;28;20029;-42
2021/05/25 05:59:15;;;;;;;8.88;1.73;;;21.60;49.50;;;;;;5051368;28;20139;-42
2021/05/25 06:01:41;;;;;;;10.85;2.15;;;21.60;50.00;;;;;;5050770;28;20052;-42
2021/05/25 06:04:07;;;;;;;8.18;1.02;;;21.60;50.00;;;;;;5050439;28;20390;-44
2021/05/25 06:06:33;;;;;;;1.48;0.40;;;21.40;43.70;;;;;;5049570;28;20029;-42
2021/05/25 06:08:59;;;;;;;1.58;0.50;;;20.20;40.60;;;;;;5050115;28;20067;-41
2021/05/25 06:11:24;;;;;;;1.20;0.50;;;18.40;41.80;;;;;;5049314;28;20052;-42
2021/05/25 06:13:50;;;;;;;0.70;0.60;;;17.20;43.70;;;;;;5050923;28;20108;-42
2021/05/25 06:16:15;;;;;;;1.58;0.43;;;18.10;44.00;;;;;;5048304;28;20025;-42
2021/05/25 06:18:41;;;;;;;7.82;3.75;;;18.80;42.60;;;;;;5047967;28;20041;-42
2021/05/25 06:21:07;;;;;;;7.75;3.85;;;19.20;42.70;;;;;;5050342;28;20029;-46
2021/05/25 06:23:34;;;;;;;11.15;3.13;;;19.10;41.40;;;;;;5049266;28;20359;-47
2021/05/25 06:26:00;;;;;;;6.55;2.25;;;19.00;41.10;;;;;;5050821;28;20036;-42
2021/05/25 06:28:27;;;;;;;3.80;1.50;;;19.00;41.00;;;;;;5049754;28;20043;-42
2021/05/25 06:30:53;;;;;;;3.28;1.42;;;19.10;40.80;;;;;;5050232;28;20028;-42
2021/05/25 06:33:19;;;;;;;3.20;1.20;;;19.20;40.50;;;;;;5054129;28;20033;-51
2021/05/25 06:35:44;;;;;;;19.23;7.13;;;19.30;40.30;;;;;;5050165;28;20027;-42
2021/05/25 06:38:10;;;;;;;16.00;6.45;;;19.20;40.00;;;;;;5049061;28;20470;-42
2021/05/25 06:40:36;;;;;;;16.05;5.88;;;19.00;39.60;;;;;;5045807;28;20025;-42
2021/05/25 06:43:01;;;;;;;13.77;5.18;;;19.20;39.90;;;;;;5048785;28;20029;-42
2021/05/25 06:45:27;;;;;;;11.52;4.18;;;19.50;40.00;;;;;;5052573;28;20033;-42
2021/05/25 06:47:53;;;;;;;37.53;11.30;;;19.60;39.80;;;;;;5051006;28;20025;-42
2021/05/25 06:50:19;;;;;;;103.15;33.03;;;19.80;39.70;;;;;;5048925;28;20025;-50
2021/05/25 06:52:45;;;;;;;68.32;23.55;;;20.00;39.80;;;;;;5049900;28;20021;-50
2021/05/25 06:55:12;;;;;;;51.25;17.50;;;20.10;39.90;;;;;;5039314;28;20029;-42
2021/05/25 06:57:39;;;;;;;38.50;12.15;;;20.10;39.90;;;;;;5050683;28;20055;-42
2021/05/25 07:00:08;;;;;;;32.95;9.82;;;20.00;39.60;;;;;;5055836;28;20029;-48
2021/05/25 07:02:34;;;;;;;26.55;9.45;;;20.00;39.60;;;;;;5049332;28;20112;-42
2021/05/25 07:04:59;;;;;;;18.02;7.10;;;20.00;40.00;;;;;;5048643;28;20092;-45
2021/05/25 07:07:25;;;;;;;15.50;5.40;;;20.10;39.70;;;;;;5059247;28;20441;-42
2021/05/25 07:09:51;;;;;;;12.05;4.60;;;20.00;39.80;;;;;;5054798;28;20044;-42
2021/05/25 07:12:17;;;;;;;14.25;4.78;;;20.00;39.30;;;;;;5053830;28;20025;-42
2021/05/25 07:14:45;;;;;;;10.55;4.00;;;20.00;39.70;;;;;;5061876;28;20110;-42
2021/05/25 07:17:10;;;;;;;10.52;3.58;;;20.00;39.70;;;;;;5056453;28;20478;-44
2021/05/25 07:19:36;;;;;;;9.18;2.97;;;19.90;39.40;;;;;;5051514;28;20068;-42
2021/05/25 07:22:02;;;;;;;7.13;1.95;;;19.90;39.50;;;;;;5054486;28;20485;-43
2021/05/25 07:24:28;;;;;;;8.45;2.33;;;19.80;39.00;;;;;;5051529;28;20041;-42
2021/05/25 07:26:53;;;;;;;6.00;2.08;;;19.70;39.30;;;;;;5052813;28;20489;-42
2021/05/25 07:29:19;;;;;;;3.65;1.70;;;19.70;39.50;;;;;;5049353;28;20131;-51
2021/05/25 07:31:45;;;;;;;6.30;1.77;;;19.70;39.50;;;;;;5051561;28;20025;-42
2021/05/25 07:34:14;;;;;;;7.15;1.38;;;19.80;39.60;;;;;;5049840;28;20063;-41
2021/05/25 07:36:39;;;;;;;8.30;1.30;;;19.70;38.80;;;;;;5055453;28;20033;-43
2021/05/25 07:39:06;;;;;;;3.90;1.23;;;19.60;39.00;;;;;;5057296;28;20032;-42
2021/05/25 07:41:32;;;;;;;2.00;1.15;;;19.60;38.80;;;;;;5049620;28;20082;-42
2021/05/25 07:43:58;;;;;;;4.15;1.20;;;19.70;39.00;;;;;;5053255;28;20033;-42
2021/05/25 07:46:25;;;;;;;1.95;0.60;;;19.80;38.90;;;;;;5053133;28;20151;-41
2021/05/25 07:48:51;;;;;;;1.63;0.60;;;19.60;36.90;;;;;;5053965;28;20037;-44
2021/05/25 07:51:17;;;;;;;3.17;0.65;;;18.40;38.60;;;;;;5050989;28;20393;-42
2021/05/25 07:53:44;;;;;;;2.67;0.50;;;18.10;38.50;;;;;;5051980;28;20037;-41
2021/05/25 07:56:10;;;;;;;0.73;0.45;;;17.90;38.20;;;;;;5054844;28;20032;-46
2021/05/25 07:58:35;;;;;;;6.47;0.60;;;18.40;39.20;;;;;;5049850;28;20098;-42
2021/05/25 08:01:01;;;;;;;2.63;0.60;;;18.90;38.80;;;;;;5051129;28;20033;-42
2021/05/25 08:03:30;;;;;;;1.10;0.40;;;19.30;38.40;;;;;;5052811;28;20041;-42
2021/05/25 08:05:58;;;;;;;1.45;0.38;;;19.50;38.10;;;;;;5051211;28;20343;-46
2021/05/25 08:08:24;;;;;;;2.72;0.40;;;19.70;37.80;;;;;;5035266;28;20465;-48
2021/05/25 08:10:50;;;;;;;5.20;1.00;;;19.70;37.70;;;;;;5035353;28;20033;-44
2021/05/25 08:13:16;;;;;;;2.40;0.55;;;19.70;37.90;;;;;;5053586;28;20036;-42
2021/05/25 08:15:50;;;;;;;1.05;0.38;;;19.70;37.90;;;;;;5052754;28;20025;-42
2021/05/25 08:20:44;;;;;;;3.20;0.55;;;19.60;37.70;;;;;;5052947;28;20585;-42
2021/05/25 08:23:11;;;;;;;1.38;0.40;;;19.60;37.80;;;;;;5049270;28;20025;-42
2021/05/25 08:25:38;;;;;;;0.90;0.35;;;19.70;37.90;;;;;;5052364;28;20029;-42
2021/05/25 08:28:05;;;;;;;1.35;0.70;;;19.70;37.60;;;;;;5053163;28;20033;-42
2021/05/25 08:30:34;;;;;;;1.00;0.60;;;19.70;37.30;;;;;;5052293;28;20025;-44
2021/05/25 08:32:59;;;;;;;2.53;0.70;;;19.60;37.30;;;;;;5052963;28;20029;-43
2021/05/25 08:35:29;;;;;;;2.35;0.80;;;19.60;37.20;;;;;;5052368;28;20029;-47
2021/05/25 08:37:59;;;;;;;1.00;0.35;;;19.60;37.70;;;;;;5035200;28;20163;-42
2021/05/25 08:40:27;;;;;;;2.67;0.50;;;19.60;37.50;;;;;;5051778;28;20482;-48
2021/05/25 08:42:53;;;;;;;1.60;0.40;;;19.60;37.50;;;;;;5053062;28;20037;-42
2021/05/25 08:45:20;;;;;;;1.40;0.43;;;19.50;37.40;;;;;;5051900;28;20527;-42
2021/05/25 08:47:48;;;;;;;1.38;0.43;;;19.60;37.60;;;;;;5052178;28;20059;-43
2021/05/25 08:50:16;;;;;;;1.55;0.43;;;19.80;37.80;;;;;;5052391;28;20021;-42
2021/05/25 08:52:42;;;;;;;2.50;0.52;;;19.90;37.80;;;;;;5045997;28;20128;-42
2021/05/25 08:55:09;;;;;;;0.68;0.32;;;19.90;37.70;;;;;;5051963;28;20171;-42
2021/05/25 08:57:35;;;;;;;1.38;0.40;;;19.90;37.80;;;;;;5044053;28;20536;-42
2021/05/25 09:00:02;;;;;;;1.35;0.50;;;19.90;37.40;;;;;;5045622;28;20033;-42
2021/05/25 09:02:28;;;;;;;2.22;0.60;;;19.90;37.30;;;;;;5048240;28;20441;-42
2021/05/25 09:04:59;;;;;;;0.30;0.30;;;19.90;37.60;;;;;;5052807;28;20074;-43
2021/05/25 09:07:51;;;;;;;1.40;0.50;;;19.90;37.40;;;;;;5056630;28;20044;-47
2021/05/25 09:10:22;;;;;;;0.60;0.35;;;19.90;37.30;;;;;;5052623;28;20463;-42
2021/05/25 09:12:53;;;;;;;4.32;0.70;;;20.00;37.70;;;;;;5051456;28;20474;-42
2021/05/25 09:15:37;;;;;;;2.92;0.70;;;20.00;37.40;;;;;;5052933;28;20033;-42
2021/05/25 09:18:06;;;;;;;1.65;0.50;;;20.00;37.40;;;;;;5048511;28;20514;-42
2021/05/25 09:20:41;;;;;;;0.65;0.32;;;20.00;37.50;;;;;;5051946;28;20040;-42
2021/05/25 09:23:07;;;;;;;1.98;0.38;;;20.00;37.30;;;;;;5044938;28;20025;-42
2021/05/25 09:25:34;;;;;;;0.60;0.30;;;20.00;37.80;;;;;;5051718;28;20115;-42
2021/05/25 09:28:09;;;;;;;2.17;0.30;;;20.10;37.50;;;;;;5052467;28;20037;-42
2021/05/25 09:30:35;;;;;;;1.45;0.43;;;20.00;37.30;;;;;;5050739;28;20033;-42
2021/05/25 09:33:01;;;;;;;0.93;0.30;;;20.10;37.70;;;;;;5052049;28;20057;-42
2021/05/25 09:35:32;;;;;;;1.15;0.40;;;20.00;37.60;;;;;;5051759;28;20489;-47
2021/05/25 09:38:05;;;;;;;2.00;0.40;;;20.10;37.80;;;;;;5034370;28;20501;-42
2021/05/25 09:40:32;;;;;;;1.77;0.80;;;20.10;37.50;;;;;;5050975;28;20036;-43
2021/05/25 09:43:21;;;;;;;0.47;0.30;;;20.10;37.80;;;;;;5051946;28;20037;-42
2021/05/25 09:46:05;;;;;;;1.15;0.40;;;20.10;38.10;;;;;;5051309;28;20013;-42
2021/05/25 09:48:51;;;;;;;1.25;0.35;;;20.10;38.00;;;;;;5050607;28;20025;-43
2021/05/25 09:51:23;;;;;;;1.45;0.30;;;20.10;38.00;;;;;;5052011;28;20027;-42
2021/05/25 09:53:50;;;;;;;0.85;0.60;;;20.10;38.20;;;;;;5051236;28;20259;-42
2021/05/25 09:56:27;;;;;;;1.35;0.65;;;20.10;38.20;;;;;;5051589;28;20021;-43
2021/05/25 09:58:54;;;;;;;1.02;0.45;;;20.20;38.40;;;;;;5051818;28;20055;-42
2021/05/25 10:01:30;;;;;;;2.70;0.95;;;20.20;38.70;;;;;;5051344;28;20104;-44
2021/05/25 10:03:56;;;;;;;0.88;0.30;;;20.10;38.40;;;;;;5051512;28;20470;-42
2021/05/25 10:06:23;;;;;;;1.58;0.80;;;20.20;38.40;;;;;;5055369;28;20120;-42
2021/05/25 10:08:49;;;;;;;0.88;0.40;;;20.20;38.60;;;;;;5051501;28;20707;-42
2021/05/25 10:11:16;;;;;;;0.65;0.40;;;20.30;38.30;;;;;;5046118;28;20025;-43
2021/05/25 10:13:42;;;;;;;1.05;0.60;;;20.20;37.70;;;;;;5049292;28;20099;-42
2021/05/25 10:16:10;;;;;;;1.40;0.70;;;20.20;38.20;;;;;;5051319;28;20089;-42
2021/05/25 10:21:13;;;;;;;2.35;0.50;;;20.20;38.10;;;;;;5051135;28;20120;-43
2021/05/25 10:23:41;;;;;;;0.55;0.40;;;20.20;37.40;;;;;;5032580;28;20033;-43
2021/05/25 10:26:18;;;;;;;1.20;0.40;;;20.10;37.20;;;;;;5050835;28;20173;-42
2021/05/25 10:28:51;;;;;;;1.65;0.47;;;20.10;37.30;;;;;;5050590;28;20041;-43
2021/05/25 10:31:36;;;;;;;2.38;0.60;;;20.20;37.30;;;;;;5051409;28;20385;-43
2021/05/25 10:34:11;;;;;;;1.42;0.60;;;20.10;37.70;;;;;;5051268;28;20025;-43
2021/05/25 10:36:47;;;;;;;3.00;0.80;;;20.20;37.50;;;;;;5050405;28;20040;-43
2021/05/25 10:39:40;;;;;;;1.20;0.43;;;20.10;36.80;;;;;;5051386;28;20031;-42
2021/05/25 10:42:27;;;;;;;2.38;0.75;;;20.10;36.70;;;;;;5050978;28;20072;-42
2021/05/25 10:45:11;;;;;;;1.20;0.32;;;20.00;36.60;;;;;;5050685;28;20029;-42
2021/05/25 10:47:49;;;;;;;1.23;0.30;;;20.10;36.90;;;;;;5049693;28;20536;-43
2021/05/25 10:52:55;;;;;;;1.10;0.50;;;20.20;36.90;;;;;;5050185;28;20602;-43
2021/05/25 10:55:35;;;;;;;0.80;0.50;;;20.40;37.10;;;;;;5042714;28;20151;-43
2021/05/25 10:58:28;;;;;;;0.95;0.55;;;20.40;37.80;;;;;;5049955;28;20048;-44
2021/05/25 11:00:54;;;;;;;1.30;0.47;;;20.50;38.40;;;;;;5051119;28;20082;-42
2021/05/25 11:03:21;;;;;;;0.98;0.40;;;20.50;38.50;;;;;;5050782;28;20120;-43
2021/05/25 11:05:58;;;;;;;1.05;0.43;;;20.50;38.70;;;;;;5043872;28;20548;-41
2021/05/25 11:08:29;;;;;;;0.70;0.38;;;20.50;38.80;;;;;;5054997;28;20040;-41
2021/05/25 11:11:03;;;;;;;2.50;0.52;;;20.60;39.00;;;;;;5049992;28;20033;-41
2021/05/25 11:13:30;;;;;;;1.30;0.52;;;20.60;39.10;;;;;;5050328;28;20041;-46
2021/05/25 11:16:02;;;;;;;0.75;0.40;;;20.60;39.30;;;;;;5032435;28;20029;-41
2021/05/25 11:18:33;;;;;;;1.77;0.32;;;20.60;39.30;;;;;;5044153;28;20033;-44
2021/05/25 11:23:58;;;;;;;1.50;0.40;;;20.60;39.40;;;;;;5050294;28;20029;-41
2021/05/25 11:27:01;;;;;;;2.35;0.52;;;20.60;39.50;;;;;;5049372;28;20104;-41
2021/05/25 11:29:49;;;;;;;0.73;0.47;;;20.60;39.40;;;;;;5048568;28;20048;-41
2021/05/25 11:32:19;;;;;;;3.35;0.50;;;20.60;39.50;;;;;;5042154;28;20037;-42
2021/05/25 11:34:54;;;;;;;0.90;0.43;;;20.60;39.60;;;;;;5051100;28;20033;-42
2021/05/25 11:37:19;;;;;;;1.60;0.40;;;20.60;39.70;;;;;;5050070;28;20033;-42
2021/05/25 11:39:46;;;;;;;1.13;0.52;;;20.60;39.80;;;;;;5049384;28;20037;-42
2021/05/25 11:42:13;;;;;;;1.92;0.50;;;20.70;39.90;;;;;;5049592;28;20029;-42
2021/05/25 11:44:47;;;;;;;1.45;0.40;;;20.70;39.90;;;;;;5049786;28;20049;-45
2021/05/25 11:47:14;;;;;;;1.98;0.30;;;20.70;40.00;;;;;;5050306;28;20055;-42
2021/05/25 11:49:42;;;;;;;1.42;0.30;;;20.80;40.20;;;;;;5047015;28;20025;-43
2021/05/25 11:52:28;;;;;;;1.23;0.50;;;20.70;40.30;;;;;;5025786;28;20036;-42
2021/05/25 11:55:04;;;;;;;0.80;0.40;;;20.70;40.40;;;;;;5053729;28;20025;-42
2021/05/25 11:57:44;;;;;;;1.10;0.30;;;20.70;40.50;;;;;;5052665;28;20053;-48
2021/05/25 12:00:12;;;;;;;0.82;0.30;;;20.70;40.60;;;;;;5050801;28;20041;-43
2021/05/25 12:02:39;;;;;;;2.63;0.60;;;20.70;40.50;;;;;;5052771;28;20035;-43
2021/05/25 12:05:06;;;;;;;1.98;0.50;;;20.80;40.60;;;;;;5035892;28;20393;-42
2021/05/25 12:07:33;;;;;;;2.72;0.43;;;20.70;40.70;;;;;;5055543;28;20039;-47
2021/05/25 12:10:00;;;;;;;1.00;0.40;;;20.80;40.70;;;;;;5053194;28;20029;-42
2021/05/25 12:12:28;;;;;;;2.05;0.60;;;20.80;40.70;;;;;;5053105;28;20025;-41
2021/05/25 12:14:57;;;;;;;0.50;0.32;;;20.80;40.80;;;;;;5053112;28;20044;-42
2021/05/25 12:17:24;;;;;;;0.70;0.30;;;20.80;40.60;;;;;;5053995;28;20043;-42
2021/05/25 12:19:55;;;;;;;0.93;0.30;;;20.80;40.60;;;;;;5053489;28;20028;-42
2021/05/25 12:22:41;;;;;;;0.75;0.30;;;20.80;40.50;;;;;;5053510;28;20128;-42
2021/05/25 12:25:19;;;;;;;0.52;0.30;;;20.80;40.50;;;;;;5053102;28;20021;-42
2021/05/25 12:27:47;;;;;;;0.73;0.30;;;20.80;40.50;;;;;;5045687;28;20040;-42
2021/05/25 12:30:15;;;;;;;1.25;0.47;;;20.80;40.40;;;;;;5053485;28;20107;-42
2021/05/25 12:32:42;;;;;;;2.55;0.50;;;20.80;40.20;;;;;;5052341;28;20119;-42
2021/05/25 12:35:08;;;;;;;1.77;0.50;;;20.80;40.20;;;;;;5053288;28;20037;-42
2021/05/25 12:37:34;;;;;;;2.35;0.50;;;20.80;40.10;;;;;;5053213;28;20526;-42
2021/05/25 12:40:05;;;;;;;0.98;0.40;;;20.80;40.10;;;;;;5052741;28;20104;-42
2021/05/25 12:42:42;;;;;;;0.90;0.30;;;20.90;40.20;;;;;;5053124;28;20036;-42
2021/05/25 12:45:14;;;;;;;0.60;0.40;;;20.90;40.20;;;;;;5052704;28;20551;-42
2021/05/25 12:47:49;;;;;;;;;;;20.90;40.00;;;;;;5045176;28;20106;-42
2021/05/25 12:50:34;;;;;;;1.88;0.40;;;20.90;40.20;;;;;;5052864;28;20423;-42
2021/05/25 12:53:12;;;;;;;1.77;0.73;;;20.90;40.10;;;;;;5052473;28;20035;-42
2021/05/25 12:55:59;;;;;;;1.35;0.60;;;20.90;40.10;;;;;;5049766;28;20128;-42
2021/05/25 12:58:36;;;;;;;1.40;0.57;;;20.90;39.80;;;;;;5052714;28;20504;-42
2021/05/25 13:01:25;;;;;;;1.80;0.50;;;20.90;40.10;;;;;;5051891;28;20104;-42
2021/05/25 13:03:52;;;;;;;2.60;0.40;;;20.90;39.90;;;;;;5050704;28;20025;-42
2021/05/25 13:08:48;;;;;;;2.42;0.55;;;21.00;40.10;;;;;;5050869;28;20044;-47